WSSL/XSP METAR and TAF weather

Enter ICAO airport designator
Station Type Date Time Source
WSSL METAR 2019/10/18 10:00 UTC NOAA

WSSL 181000Z 17007KT 9999 FEW018 BKN300 30/22 Q1007


Station Type Date Time Source
WSSL Decoded METAR 2019/10/18 10:00 UTC NOAA

Station name not available
Oct 18, 2019 - 06:00 AM EDT / 2019.10.18 1000 UTC
Wind: from the S (170 degrees) at 8 MPH (7 KT):0
Visibility: greater than 7 mile(s):0
Sky conditions: mostly cloudy
Temperature: 86 F (30 C)
Heat index: 91.8 F (33.2 C):1
Dew Point: 71 F (22 C)
Relative Humidity: 62%
Pressure (altimeter): 29.74 in. Hg (1007 hPa)
ob: WSSL 181000Z 17007KT 9999 FEW018 BKN300 30/22 Q1007
cycle: 10

Station Type Date Time Source
WSSL TAF 2019/10/18 08:03 UTC NOAA

TAF
AMD WSSL 180800Z 1808/1912 16007KT 9999 FEW015 SCT020

Example: see airport list